createdAt,value
2022-11-23T00:01:34.528Z,5.20
2022-11-23T00:04:05.739Z,5.20
2022-11-23T00:06:32.876Z,5.20
2022-11-23T00:08:59.660Z,5.20
2022-11-23T00:11:27.824Z,5.10
2022-11-23T00:13:55.694Z,5.10
2022-11-23T00:16:28.998Z,5.00
2022-11-23T00:18:59.611Z,5.00
2022-11-23T00:21:30.006Z,4.90
2022-11-23T00:23:57.025Z,4.90
2022-11-23T00:26:24.055Z,4.90
2022-11-23T00:28:50.946Z,4.80
2022-11-23T00:31:20.577Z,4.80
2022-11-23T00:33:53.659Z,4.80
2022-11-23T00:36:22.235Z,4.70
2022-11-23T00:38:50.505Z,4.70
2022-11-23T00:41:20.978Z,4.60
2022-11-23T00:43:47.844Z,4.60
2022-11-23T00:46:15.860Z,4.50
2022-11-23T00:48:44.632Z,4.40
2022-11-23T00:51:15.288Z,4.40
2022-11-23T00:53:42.627Z,4.30
2022-11-23T00:56:09.537Z,4.30
2022-11-23T00:58:38.682Z,4.30
2022-11-23T01:01:13.386Z,4.20
2022-11-23T01:03:50.202Z,4.10
2022-11-23T01:06:24.215Z,4.10
2022-11-23T01:08:54.604Z,4.00
2022-11-23T01:11:22.860Z,3.90
2022-11-23T01:13:50.932Z,3.80
2022-11-23T01:16:28.644Z,3.80
2022-11-23T01:18:56.681Z,3.70
2022-11-23T01:21:25.960Z,3.70
2022-11-23T01:23:53.113Z,3.70
2022-11-23T01:26:20.079Z,3.60
2022-11-23T01:28:46.995Z,3.60
2022-11-23T01:31:19.661Z,3.50
2022-11-23T01:33:47.253Z,3.50
2022-11-23T01:36:20.350Z,3.40
2022-11-23T01:38:48.679Z,3.40
2022-11-23T01:41:22.756Z,3.40
2022-11-23T01:43:51.317Z,3.30
2022-11-23T01:46:19.172Z,3.30
2022-11-23T01:49:12.425Z,3.20
2022-11-23T01:51:44.444Z,3.10
2022-11-23T01:54:34.441Z,3.10
2022-11-23T01:57:07.553Z,3.00
2022-11-23T01:59:35.391Z,3.00
2022-11-23T02:02:03.507Z,3.00
2022-11-23T02:04:36.290Z,2.90
2022-11-23T02:07:04.814Z,2.90
2022-11-23T02:09:34.279Z,2.90
2022-11-23T02:12:01.263Z,2.90
2022-11-23T02:14:28.995Z,2.80
2022-11-23T02:16:59.222Z,2.70
2022-11-23T02:19:48.910Z,2.70
2022-11-23T02:22:36.053Z,2.70
2022-11-23T02:25:13.382Z,2.60
2022-11-23T02:27:46.794Z,2.60
2022-11-23T02:30:14.658Z,2.60
2022-11-23T02:32:42.996Z,2.50
2022-11-23T02:35:12.380Z,2.60
2022-11-23T02:37:42.285Z,2.60
2022-11-23T02:40:33.992Z,2.60
2022-11-23T02:43:01.824Z,2.60
2022-11-23T02:45:43.496Z,2.50
2022-11-23T02:48:10.225Z,2.50
2022-11-23T02:50:36.929Z,2.50
2022-11-23T02:53:03.648Z,2.50
2022-11-23T02:55:30.334Z,2.50
2022-11-23T02:57:57.068Z,2.50
2022-11-23T03:00:23.887Z,2.50
2022-11-23T03:02:50.724Z,2.60
2022-11-23T03:05:17.596Z,2.60
2022-11-23T03:07:44.317Z,2.60
2022-11-23T03:10:11.724Z,2.60
2022-11-23T03:12:38.472Z,2.60
2022-11-23T03:15:05.939Z,2.70
2022-11-23T03:17:35.219Z,2.70
2022-11-23T03:20:02.242Z,2.70
2022-11-23T03:22:28.946Z,2.70
2022-11-23T03:24:56.328Z,2.70
2022-11-23T03:27:23.486Z,2.80
2022-11-23T03:29:50.219Z,2.80
2022-11-23T03:32:16.991Z,2.80
2022-11-23T03:34:43.704Z,2.80
2022-11-23T03:37:10.406Z,2.80
2022-11-23T03:39:37.116Z,2.80
2022-11-23T03:42:04.176Z,2.80
2022-11-23T03:44:30.888Z,2.80
2022-11-23T03:46:57.602Z,2.80
2022-11-23T03:49:24.306Z,2.90
2022-11-23T03:51:50.976Z,2.90
2022-11-23T03:54:17.723Z,2.90
2022-11-23T03:56:44.453Z,2.90
2022-11-23T03:59:11.315Z,2.90
2022-11-23T04:01:38.085Z,2.90
2022-11-23T04:04:04.890Z,2.80
2022-11-23T04:06:31.586Z,2.80
2022-11-23T04:09:02.104Z,2.80
2022-11-23T04:11:29.328Z,2.70
2022-11-23T04:13:56.060Z,2.70
2022-11-23T04:16:22.762Z,2.70
2022-11-23T04:18:49.460Z,2.60
2022-11-23T04:21:16.185Z,2.70
2022-11-23T04:23:42.882Z,2.60
2022-11-23T04:26:09.610Z,2.50
2022-11-23T04:28:36.296Z,2.50
2022-11-23T04:31:03.012Z,2.50
2022-11-23T04:33:31.506Z,2.50
2022-11-23T04:35:58.297Z,2.40
2022-11-23T04:38:25.094Z,2.40
2022-11-23T04:40:51.981Z,2.40
2022-11-23T04:43:18.722Z,2.50
2022-11-23T04:45:45.472Z,2.50
2022-11-23T04:48:12.225Z,2.50
2022-11-23T04:50:40.792Z,2.50
2022-11-23T04:53:08.805Z,2.60
2022-11-23T04:55:35.859Z,2.60
2022-11-23T04:58:02.732Z,2.60
2022-11-23T05:00:29.530Z,2.60
2022-11-23T05:03:00.716Z,2.70
2022-11-23T05:05:27.588Z,2.70
2022-11-23T05:07:54.983Z,2.70
2022-11-23T05:10:21.786Z,2.80
2022-11-23T05:12:48.499Z,2.80
2022-11-23T05:15:15.290Z,2.80
2022-11-23T05:17:42.624Z,2.80
2022-11-23T05:20:10.571Z,2.80
2022-11-23T05:22:37.347Z,2.90
2022-11-23T05:25:04.772Z,2.90
2022-11-23T05:27:31.668Z,2.90
2022-11-23T05:29:58.409Z,2.90
2022-11-23T05:32:25.397Z,3.00
2022-11-23T05:34:52.158Z,2.90
2022-11-23T05:37:18.935Z,3.00
2022-11-23T05:39:45.663Z,3.00
2022-11-23T05:42:12.385Z,3.00
2022-11-23T05:44:39.115Z,3.00
2022-11-23T05:47:05.820Z,3.00
2022-11-23T05:49:32.739Z,3.00
2022-11-23T05:51:59.569Z,3.00
2022-11-23T05:54:26.272Z,3.00
2022-11-23T05:56:53.008Z,3.10
2022-11-23T05:59:19.733Z,3.10
2022-11-23T06:01:46.416Z,3.10
2022-11-23T06:04:13.375Z,3.10
2022-11-23T06:06:40.169Z,3.20
2022-11-23T06:09:06.920Z,3.20
2022-11-23T06:11:33.631Z,3.20
2022-11-23T06:14:00.307Z,3.20
2022-11-23T06:16:27.025Z,3.20
2022-11-23T06:18:53.780Z,3.30
2022-11-23T06:21:20.516Z,3.20
2022-11-23T06:23:47.686Z,3.20
2022-11-23T06:26:14.868Z,3.20
2022-11-23T06:28:42.544Z,3.20
2022-11-23T06:31:10.420Z,3.30
2022-11-23T06:33:37.608Z,3.30
2022-11-23T06:36:04.833Z,3.30
2022-11-23T06:38:31.600Z,3.30
2022-11-23T06:41:02.183Z,3.40
2022-11-23T06:43:29.766Z,3.40
2022-11-23T06:45:57.412Z,3.40
2022-11-23T06:48:24.272Z,3.40
2022-11-23T06:50:51.219Z,3.40
2022-11-23T06:53:17.910Z,3.40
2022-11-23T06:55:44.630Z,3.50
2022-11-23T06:58:11.830Z,3.50
2022-11-23T07:00:38.588Z,3.50
2022-11-23T07:03:05.319Z,3.50
2022-11-23T07:05:32.083Z,3.50
2022-11-23T07:07:58.801Z,3.50
2022-11-23T07:10:25.817Z,3.60
2022-11-23T07:12:52.615Z,3.60
2022-11-23T07:15:19.624Z,3.60
2022-11-23T07:17:46.383Z,3.70
2022-11-23T07:20:14.168Z,3.70
2022-11-23T07:22:41.367Z,3.80
2022-11-23T07:25:08.244Z,3.90
2022-11-23T07:27:34.979Z,3.90
2022-11-23T07:30:01.745Z,4.00
2022-11-23T07:32:28.495Z,4.00
2022-11-23T07:34:55.200Z,4.00
2022-11-23T07:37:21.886Z,4.00
2022-11-23T07:39:57.331Z,4.10
2022-11-23T07:42:33.578Z,4.10
2022-11-23T07:45:05.183Z,4.10
2022-11-23T07:47:32.764Z,4.20
2022-11-23T07:49:59.576Z,4.20
2022-11-23T07:52:26.301Z,4.30
2022-11-23T07:54:53.011Z,4.30
2022-11-23T07:57:19.715Z,4.30
2022-11-23T07:59:46.406Z,4.40
2022-11-23T08:02:15.505Z,4.40
2022-11-23T08:04:42.305Z,4.40
2022-11-23T08:07:09.069Z,4.40
2022-11-23T08:09:36.062Z,4.50
2022-11-23T08:12:02.911Z,4.50
2022-11-23T08:14:30.048Z,4.50
2022-11-23T08:16:57.194Z,4.60
2022-11-23T08:19:24.012Z,4.60
2022-11-23T08:21:51.415Z,4.60
2022-11-23T08:24:18.138Z,4.70
2022-11-23T08:26:44.834Z,4.70
2022-11-23T08:29:11.557Z,4.70
2022-11-23T08:31:38.253Z,4.70
2022-11-23T08:34:04.961Z,4.80
2022-11-23T08:36:31.803Z,4.80
2022-11-23T08:38:58.664Z,4.80
2022-11-23T08:41:25.458Z,4.80
2022-11-23T08:43:52.901Z,4.80
2022-11-23T08:46:19.624Z,4.90
2022-11-23T08:48:46.345Z,4.90
2022-11-23T08:51:13.173Z,4.90
2022-11-23T08:53:39.865Z,4.90
2022-11-23T08:56:07.928Z,4.90
2022-11-23T08:58:34.638Z,5.00
2022-11-23T09:01:01.435Z,5.00
2022-11-23T09:03:28.166Z,5.10
2022-11-23T09:06:00.630Z,5.20
2022-11-23T09:08:28.516Z,5.30
2022-11-23T09:11:02.719Z,5.30
2022-11-23T09:13:29.931Z,5.40
2022-11-23T09:16:01.770Z,5.50
2022-11-23T09:18:33.584Z,5.60
2022-11-23T09:21:05.919Z,5.70
2022-11-23T09:23:34.164Z,5.80
2022-11-23T09:26:03.424Z,6.00
2022-11-23T09:28:31.768Z,6.10
2022-11-23T09:30:58.599Z,6.20
2022-11-23T09:33:25.545Z,6.20
2022-11-23T09:36:00.995Z,6.30
2022-11-23T09:38:44.759Z,6.40
2022-11-23T09:41:43.634Z,6.50
2022-11-23T09:44:36.336Z,6.60
2022-11-23T09:47:36.097Z,6.60
2022-11-23T09:50:11.580Z,6.70
2022-11-23T09:52:44.076Z,6.90
2022-11-23T09:55:40.982Z,7.10
2022-11-23T09:58:15.514Z,7.30
2022-11-23T10:01:01.904Z,7.40
2022-11-23T10:03:34.709Z,7.60
2022-11-23T10:06:15.872Z,7.70
2022-11-23T10:09:20.576Z,7.80
2022-11-23T10:12:18.320Z,7.90
2022-11-23T10:14:56.727Z,7.90
2022-11-23T10:18:02.287Z,8.00
2022-11-23T10:21:05.796Z,8.10
2022-11-23T10:24:10.747Z,8.20
2022-11-23T10:26:42.891Z,8.40
2022-11-23T10:29:35.579Z,8.70
2022-11-23T10:32:02.440Z,9.00
2022-11-23T10:35:00.962Z,9.10
2022-11-23T10:37:27.660Z,9.30
2022-11-23T10:39:54.447Z,9.30
2022-11-23T10:42:36.135Z,9.20
2022-11-23T10:45:04.474Z,9.20
2022-11-23T10:47:50.843Z,9.20
2022-11-23T10:50:26.041Z,9.40
2022-11-23T10:53:23.176Z,9.70
2022-11-23T10:55:57.985Z,10.00
2022-11-23T10:58:40.914Z,10.20
2022-11-23T11:01:16.211Z,10.30
2022-11-23T11:03:43.091Z,10.40
2022-11-23T11:06:11.365Z,10.60
2022-11-23T11:09:09.551Z,10.70
2022-11-23T11:11:46.509Z,11.00
2022-11-23T11:14:25.314Z,11.00
2022-11-23T11:17:00.394Z,10.90
2022-11-23T11:19:31.442Z,11.00
2022-11-23T11:22:01.179Z,11.10
2022-11-23T11:24:37.096Z,11.30
2022-11-23T11:27:24.828Z,11.30
2022-11-23T11:30:04.102Z,11.50
2022-11-23T11:32:52.069Z,11.60
2022-11-23T11:35:35.064Z,11.90
2022-11-23T11:38:35.914Z,12.10
2022-11-23T11:41:09.399Z,12.40
2022-11-23T11:43:56.284Z,12.70
2022-11-23T11:46:31.527Z,12.90
2022-11-23T11:49:14.791Z,12.90
2022-11-23T11:51:48.551Z,12.90
2022-11-23T11:54:37.066Z,13.20
2022-11-23T11:57:21.324Z,13.30
2022-11-23T11:59:54.642Z,13.20
2022-11-23T12:02:34.841Z,13.20
2022-11-23T12:05:32.426Z,13.20
2022-11-23T12:08:06.015Z,13.30
2022-11-23T12:10:40.578Z,13.50
2022-11-23T12:13:22.675Z,13.70
2022-11-23T12:16:16.157Z,13.80
2022-11-23T12:19:01.150Z,13.90
2022-11-23T12:22:21.414Z,13.90
2022-11-23T12:25:12.264Z,14.00
2022-11-23T12:28:02.613Z,14.30
2022-11-23T12:30:54.710Z,14.50
2022-11-23T12:33:49.355Z,14.70
2022-11-23T12:36:31.281Z,15.00
2022-11-23T12:39:08.276Z,15.40
2022-11-23T12:41:58.933Z,15.60
2022-11-23T12:45:14.571Z,15.90
2022-11-23T12:48:15.898Z,16.40
2022-11-23T12:51:28.876Z,16.60
2022-11-23T12:54:13.175Z,16.80
2022-11-23T12:56:55.806Z,17.20
2022-11-23T12:59:26.256Z,17.80
2022-11-23T13:02:03.572Z,17.50
2022-11-23T13:05:04.944Z,17.30
2022-11-23T13:08:14.796Z,17.10
2022-11-23T13:10:55.943Z,18.70
2022-11-23T13:13:39.863Z,20.80
2022-11-23T13:16:21.077Z,20.30
2022-11-23T13:19:30.773Z,18.60
2022-11-23T13:21:58.586Z,17.30
2022-11-23T13:24:34.117Z,16.70
2022-11-23T13:27:16.236Z,16.50
2022-11-23T13:29:58.412Z,16.00
2022-11-23T13:32:39.828Z,15.90
2022-11-23T13:35:18.800Z,16.20
2022-11-23T13:37:57.582Z,17.10
2022-11-23T13:40:28.219Z,19.40
2022-11-23T13:43:01.512Z,21.20
2022-11-23T13:45:34.281Z,22.90
2022-11-23T13:48:13.261Z,23.60
2022-11-23T13:50:49.103Z,24.30
2022-11-23T13:53:36.152Z,24.60
2022-11-23T13:56:36.046Z,22.20
2022-11-23T13:59:23.589Z,19.00
2022-11-23T14:02:08.933Z,18.30
2022-11-23T14:04:42.007Z,19.90
2022-11-23T14:07:08.686Z,21.60
2022-11-23T14:09:48.943Z,22.70
2022-11-23T14:12:33.660Z,22.70
2022-11-23T14:15:16.478Z,20.40
2022-11-23T14:18:13.936Z,18.00
2022-11-23T14:20:56.751Z,15.80
2022-11-23T14:24:14.203Z,14.20
2022-11-23T14:27:46.164Z,13.00
2022-11-23T14:30:38.770Z,12.10
2022-11-23T14:33:32.799Z,11.40
2022-11-23T14:36:27.016Z,10.90
2022-11-23T14:39:39.380Z,10.50
2022-11-23T14:42:16.946Z,10.30
2022-11-23T14:44:45.205Z,10.10
2022-11-23T14:47:12.399Z,9.90
2022-11-23T14:49:51.086Z,9.70
2022-11-23T14:52:34.464Z,9.50
2022-11-23T14:55:05.706Z,9.40
2022-11-23T14:57:44.072Z,9.30
2022-11-23T15:00:44.420Z,9.20
2022-11-23T15:03:49.528Z,9.10
2022-11-23T15:06:17.330Z,8.90
2022-11-23T15:09:39.439Z,8.80
2022-11-23T15:12:25.816Z,8.60
2022-11-23T15:14:57.189Z,8.50
2022-11-23T15:17:25.486Z,8.40
2022-11-23T15:20:04.037Z,8.20
2022-11-23T15:22:34.226Z,8.10
2022-11-23T15:25:11.603Z,8.00
2022-11-23T15:27:41.830Z,7.90
2022-11-23T15:30:17.569Z,7.80
2022-11-23T15:32:44.638Z,7.70
2022-11-23T15:35:15.630Z,7.60
2022-11-23T15:37:51.627Z,7.50
2022-11-23T15:40:19.509Z,7.40
2022-11-23T15:42:50.936Z,7.30
2022-11-23T15:45:41.922Z,7.20
2022-11-23T15:48:26.835Z,7.10
2022-11-23T15:50:59.247Z,7.00
2022-11-23T15:53:49.090Z,7.00
2022-11-23T15:56:38.341Z,6.90
2022-11-23T15:59:34.945Z,6.80
2022-11-23T16:02:05.089Z,6.70
2022-11-23T16:04:40.061Z,6.60
2022-11-23T16:07:25.945Z,6.60
2022-11-23T16:10:29.420Z,6.50
2022-11-23T16:13:00.279Z,6.40
2022-11-23T16:15:44.363Z,6.40
2022-11-23T16:18:27.616Z,6.30
2022-11-23T16:21:04.825Z,6.30
2022-11-23T16:23:54.754Z,6.20
2022-11-23T16:26:33.217Z,6.10
2022-11-23T16:29:01.291Z,6.00
2022-11-23T16:31:43.119Z,5.90
2022-11-23T16:34:18.156Z,5.90
2022-11-23T16:36:45.664Z,5.80
2022-11-23T16:39:12.411Z,5.80
2022-11-23T16:41:39.199Z,5.70
2022-11-23T16:44:05.897Z,5.70
2022-11-23T16:46:33.031Z,5.60
2022-11-23T16:49:00.550Z,5.60
2022-11-23T16:51:27.621Z,5.50
2022-11-23T16:54:13.118Z,5.40
2022-11-23T16:56:41.047Z,5.40
2022-11-23T16:59:18.468Z,5.40
2022-11-23T17:01:56.733Z,5.30
2022-11-23T17:04:25.301Z,5.30
2022-11-23T17:06:52.095Z,5.20
2022-11-23T17:09:18.796Z,5.20
2022-11-23T17:11:50.196Z,5.10
2022-11-23T17:14:19.246Z,5.10
2022-11-23T17:16:46.602Z,5.10
2022-11-23T17:19:20.193Z,5.00
2022-11-23T17:21:47.553Z,5.00
2022-11-23T17:24:14.349Z,5.00
2022-11-23T17:26:46.317Z,5.00
2022-11-23T17:29:18.943Z,5.00
2022-11-23T17:31:47.604Z,4.90
2022-11-23T17:34:15.251Z,4.90
2022-11-23T17:36:45.434Z,4.90
2022-11-23T17:39:33.361Z,4.80
2022-11-23T17:42:04.530Z,4.80
2022-11-23T17:44:32.336Z,4.80
2022-11-23T17:47:00.385Z,4.70
2022-11-23T17:49:28.181Z,4.70
2022-11-23T17:51:55.611Z,4.70
2022-11-23T17:54:23.738Z,4.70
2022-11-23T17:56:51.735Z,4.60
2022-11-23T17:59:19.010Z,4.60
2022-11-23T18:01:45.847Z,4.50
2022-11-23T18:04:12.585Z,4.50
2022-11-23T18:06:39.299Z,4.40
2022-11-23T18:09:06.444Z,4.40
2022-11-23T18:11:33.209Z,4.40
2022-11-23T18:14:00.056Z,4.30
2022-11-23T18:16:26.845Z,4.30
2022-11-23T18:18:53.867Z,4.20
2022-11-23T18:21:20.650Z,4.20
2022-11-23T18:23:47.421Z,4.20
2022-11-23T18:26:26.933Z,4.20
2022-11-23T18:28:54.137Z,4.20
2022-11-23T18:31:21.187Z,4.20
2022-11-23T18:33:48.015Z,4.10
2022-11-23T18:36:15.181Z,4.10
2022-11-23T18:38:44.926Z,4.00
2022-11-23T18:41:16.547Z,4.00
2022-11-23T18:43:44.669Z,3.90
2022-11-23T18:46:19.066Z,3.90
2022-11-23T18:48:48.721Z,3.80
2022-11-23T18:51:16.505Z,3.80
2022-11-23T18:53:47.206Z,3.70
2022-11-23T18:56:13.954Z,3.70
2022-11-23T18:58:44.139Z,3.70
2022-11-23T19:01:18.174Z,3.70
2022-11-23T19:03:47.889Z,3.60
2022-11-23T19:06:17.390Z,3.60
2022-11-23T19:08:53.236Z,3.60
2022-11-23T19:11:23.177Z,3.50
2022-11-23T19:13:53.806Z,3.50
2022-11-23T19:16:24.471Z,3.40
2022-11-23T19:18:57.837Z,3.40
2022-11-23T19:21:29.181Z,3.30
2022-11-23T19:23:57.876Z,3.30
2022-11-23T19:26:27.113Z,3.30
2022-11-23T19:28:55.508Z,3.30
2022-11-23T19:31:29.270Z,3.40
2022-11-23T19:34:03.170Z,3.40
2022-11-23T19:36:33.143Z,3.40
2022-11-23T19:39:03.048Z,3.40
2022-11-23T19:41:30.899Z,3.40
2022-11-23T19:43:59.545Z,3.40
2022-11-23T19:46:27.988Z,3.40
2022-11-23T19:48:57.110Z,3.40
2022-11-23T19:51:24.881Z,3.40
2022-11-23T19:53:51.743Z,3.50
2022-11-23T19:56:25.099Z,3.50
2022-11-23T19:58:58.107Z,3.60
2022-11-23T20:01:28.348Z,3.70
2022-11-23T20:03:57.801Z,3.70
2022-11-23T20:06:28.295Z,3.70
2022-11-23T20:08:59.203Z,3.80
2022-11-23T20:11:30.720Z,3.80
2022-11-23T20:13:58.652Z,3.80
2022-11-23T20:16:28.051Z,3.90
2022-11-23T20:19:00.971Z,3.90
2022-11-23T20:21:30.016Z,4.00
2022-11-23T20:24:15.785Z,4.00
2022-11-23T20:26:43.239Z,4.00
2022-11-23T20:29:10.634Z,4.10
2022-11-23T20:31:38.454Z,4.10
2022-11-23T20:34:08.108Z,4.10
2022-11-23T20:36:38.003Z,4.10
2022-11-23T20:39:10.036Z,4.20
2022-11-23T20:41:38.480Z,4.20
2022-11-23T20:44:12.508Z,4.20
2022-11-23T20:49:26.875Z,4.20
2022-11-23T20:51:53.573Z,4.30
2022-11-23T20:54:20.281Z,4.30
2022-11-23T20:56:46.980Z,4.30
2022-11-23T20:59:13.769Z,4.30
2022-11-23T21:01:40.727Z,4.40
2022-11-23T21:04:08.737Z,4.40
2022-11-23T21:06:38.941Z,4.40
2022-11-23T21:09:08.782Z,4.40
2022-11-23T21:11:54.221Z,4.50
2022-11-23T21:14:24.534Z,4.50
2022-11-23T21:16:58.260Z,4.50
2022-11-23T21:19:31.362Z,4.50
2022-11-23T21:22:02.433Z,4.50
2022-11-23T21:24:29.516Z,4.50
2022-11-23T21:26:56.366Z,4.50
2022-11-23T21:29:23.763Z,4.50
2022-11-23T21:31:50.684Z,4.50
2022-11-23T21:34:24.122Z,4.50
2022-11-23T21:36:52.391Z,4.50
2022-11-23T21:39:20.082Z,4.50
2022-11-23T21:41:50.358Z,4.50
2022-11-23T21:44:18.207Z,4.50
2022-11-23T21:46:45.094Z,4.50
2022-11-23T21:49:12.785Z,4.50
2022-11-23T21:51:42.254Z,4.60
2022-11-23T21:54:15.707Z,4.60
2022-11-23T21:56:47.274Z,4.60
2022-11-23T21:59:14.333Z,4.60
2022-11-23T22:01:41.681Z,4.60
2022-11-23T22:04:12.392Z,4.60
2022-11-23T22:06:41.811Z,4.60
2022-11-23T22:09:10.554Z,4.60
2022-11-23T22:11:41.542Z,4.60
2022-11-23T22:14:12.122Z,4.60
2022-11-23T22:16:45.244Z,4.60
2022-11-23T22:19:14.867Z,4.60
2022-11-23T22:21:43.701Z,4.60
2022-11-23T22:24:16.933Z,4.60
2022-11-23T22:26:45.507Z,4.60
2022-11-23T22:29:12.923Z,4.60
2022-11-23T22:31:40.116Z,4.60
2022-11-23T22:34:10.957Z,4.60
2022-11-23T22:36:37.653Z,4.60
2022-11-23T22:39:06.875Z,4.60
2022-11-23T22:41:36.422Z,4.60
2022-11-23T22:44:05.808Z,4.60
2022-11-23T22:46:32.840Z,4.70
2022-11-23T22:48:59.674Z,4.70
2022-11-23T22:51:28.899Z,4.70
2022-11-23T22:54:00.085Z,4.70
2022-11-23T22:56:28.889Z,4.70
2022-11-23T22:58:56.046Z,4.70
2022-11-23T23:01:27.578Z,4.70
2022-11-23T23:03:56.790Z,4.70
2022-11-23T23:06:26.990Z,4.70
2022-11-23T23:08:56.752Z,4.70
2022-11-23T23:11:26.569Z,4.80
2022-11-23T23:13:53.521Z,4.80
2022-11-23T23:16:21.148Z,4.80
2022-11-23T23:18:48.280Z,4.80
2022-11-23T23:21:18.979Z,4.70
2022-11-23T23:23:49.507Z,4.70
2022-11-23T23:26:19.272Z,4.70
2022-11-23T23:28:46.481Z,4.70
2022-11-23T23:31:16.765Z,4.70
2022-11-23T23:33:45.503Z,4.70
2022-11-23T23:36:19.676Z,4.80
2022-11-23T23:38:46.592Z,4.70
2022-11-23T23:41:14.826Z,4.70
2022-11-23T23:43:42.779Z,4.70
2022-11-23T23:46:13.420Z,4.70
2022-11-23T23:48:41.550Z,4.80
2022-11-23T23:51:10.917Z,4.80
2022-11-23T23:53:38.921Z,4.80
2022-11-23T23:56:12.089Z,4.80
2022-11-23T23:58:39.267Z,4.80
